Centreville, Maryland
Current Conditions -  °F | °C
As of 12:50 PM on Thursday 18 Dec 2014 (Local Time) from KESN Reporting Station
Scattered Clouds Scattered Clouds  
Wind Chill: 34°   Ceiling: Unl
Heat Index: 41°   Visibility: 10mi
Dew Point: 25°   Wind: 13mph
Humidity: 53%   Direction: 300°WNW
Pressure: 30.13"   Gusts: 20mph
Location:  39.04°N, 76.07°W
Report Text: KESN 181750Z 30011G17KT 10SM SCT037 05/M04 A3013
Loading
Personal Weather Stations






























Interactive Weather Map New forecast layout! Learn more

10-Day Weather Forecast

Advertisements
Track Severe Weather on mobile